Time;durP1;ratioP1;P1;durP2;ratioP2;P2;SDS_P1;SDS_P2;PMS_P1;PMS_P2;Temp;Humidity;BMP_temperature;BMP_pressure;BME280_temperature;BME280_humidity;BME280_pressure;Samples;Min_cycle;Max_cycle;Signal;HPM_P1;HPM_P2
2023/12/25 00:02:00;;;;;;;13.00;8.30;;;;;;;3.69;100.00;96982.00;1223889;75;2914984;-68
2023/12/25 00:04:33;;;;;;;9.55;6.45;;;;;;;3.78;100.00;96982.78;1222194;75;2916694;-67
2023/12/25 00:07:07;;;;;;;8.25;5.80;;;;;;;3.88;100.00;96975.44;1224392;75;2925589;-69
2023/12/25 00:09:40;;;;;;;7.75;5.85;;;;;;;3.78;100.00;96963.81;1221822;75;2924481;-67
2023/12/25 00:12:15;;;;;;;7.10;4.80;;;;;;;3.86;100.00;96969.69;1224391;75;2916212;-69
2023/12/25 00:14:48;;;;;;;7.90;5.20;;;;;;;3.84;100.00;96945.78;1221094;75;2928047;-67
2023/12/25 00:17:21;;;;;;;6.25;4.45;;;;;;;3.85;100.00;96954.66;1224605;75;2852185;-67
2023/12/25 00:19:54;;;;;;;9.60;6.60;;;;;;;3.70;100.00;96951.75;1221610;75;2915904;-68
2023/12/25 00:22:27;;;;;;;12.40;8.10;;;;;;;3.73;100.00;96941.97;1223796;75;2923764;-70
2023/12/25 00:24:59;;;;;;;9.95;6.75;;;;;;;3.83;100.00;96941.56;1222241;75;2916757;-69
2023/12/25 00:27:35;;;;;;;9.25;6.70;;;;;;;3.86;100.00;96950.00;1225226;75;2916470;-71
2023/12/25 00:30:10;;;;;;;8.80;5.85;;;;;;;4.01;100.00;96937.38;1222220;75;2923645;-68
2023/12/25 00:32:43;;;;;;;9.25;6.60;;;;;;;3.88;100.00;96934.81;1225124;75;2917578;-68
2023/12/25 00:35:16;;;;;;;12.15;7.95;;;;;;;3.53;100.00;96945.81;1219681;75;2919187;-65
2023/12/25 00:37:49;;;;;;;13.35;7.75;;;;;;;3.55;100.00;96948.09;1223941;75;2920211;-68
2023/12/25 00:40:22;;;;;;;10.25;7.05;;;;;;;3.71;100.00;96947.84;1221485;75;2921939;-67
2023/12/25 00:42:57;;;;;;;10.00;7.35;;;;;;;3.81;100.00;96938.56;1224598;75;2922498;-68
2023/12/25 00:45:30;;;;;;;7.95;5.70;;;;;;;3.91;100.00;96954.81;1222510;75;2916614;-68
2023/12/25 00:48:01;;;;;;;14.55;8.75;;;;;;;3.52;100.00;96930.06;1223594;75;2940920;-68
2023/12/25 00:50:34;;;;;;;12.55;8.25;;;;;;;3.40;100.00;96934.38;1221329;75;2929235;-68
2023/12/25 00:53:07;;;;;;;11.80;7.95;;;;;;;3.38;100.00;96936.75;1225442;75;2845199;-67
2023/12/25 00:55:40;;;;;;;15.30;9.80;;;;;;;3.11;100.00;96932.00;1222821;75;2928082;-67
2023/12/25 00:58:15;;;;;;;13.50;9.20;;;;;;;3.10;100.00;96925.84;1223726;75;2922821;-67
2023/12/25 01:00:48;;;;;;;11.65;7.90;;;;;;;3.48;100.00;96927.47;1223011;75;2920277;-68
2023/12/25 01:03:21;;;;;;;13.95;7.45;;;;;;;3.44;100.00;96924.16;1220468;75;3157353;-68
2023/12/25 01:05:54;;;;;;;9.15;6.70;;;;;;;3.73;100.00;96961.69;1222181;75;2914720;-67
2023/12/25 01:08:26;;;;;;;10.40;7.00;;;;;;;3.64;100.00;96948.13;1224210;75;2921148;-69
2023/12/25 01:10:59;;;;;;;6.90;5.30;;;;;;;3.92;100.00;96954.38;1222087;75;2919045;-70
2023/12/25 01:13:35;;;;;;;8.55;5.30;;;;;;;3.90;100.00;96945.22;1225093;75;2913791;-69
2023/12/25 01:16:08;;;;;;;9.85;6.90;;;;;;;3.79;100.00;96954.50;1223055;75;2917074;-70
2023/12/25 01:18:41;;;;;;;9.15;6.20;;;;;;;3.99;100.00;96939.78;1224571;75;2913622;-70
2023/12/25 01:21:14;;;;;;;8.95;5.70;;;;;;;3.96;100.00;96949.56;1222298;75;2919840;-68
2023/12/25 01:23:47;;;;;;;7.70;5.60;;;;;;;4.08;100.00;96944.47;1223591;75;2922892;-68
2023/12/25 01:26:20;;;;;;;8.35;5.20;;;;;;;3.95;100.00;96952.75;1222745;75;2923004;-69
2023/12/25 01:28:56;;;;;;;11.35;6.85;;;;;;;3.88;100.00;96951.06;1224473;75;2915507;-67
2023/12/25 01:31:28;;;;;;;8.10;5.60;;;;;;;4.07;100.00;96959.97;1222590;75;2924282;-67
2023/12/25 01:34:01;;;;;;;7.65;4.75;;;;;;;4.20;100.00;96959.84;1225303;75;2919722;-67
2023/12/25 01:36:35;;;;;;;6.05;4.20;;;;;;;4.14;100.00;96959.69;1221794;75;2933969;-66
2023/12/25 01:39:08;;;;;;;9.65;6.05;;;;;;;3.88;100.00;96963.84;1223791;75;2922816;-67
2023/12/25 01:41:41;;;;;;;8.05;4.85;;;;;;;4.17;100.00;96977.75;1223353;75;2889809;-69
2023/12/25 01:44:17;;;;;;;8.50;5.35;;;;;;;3.97;100.00;96958.44;1224000;75;2916478;-66
2023/12/25 01:46:50;;;;;;;10.05;7.35;;;;;;;3.87;100.00;96956.91;1224120;75;2921290;-67
2023/12/25 01:49:23;;;;;;;10.15;6.65;;;;;;;4.01;100.00;96942.81;1222519;75;2920805;-68
2023/12/25 01:51:56;;;;;;;8.90;6.40;;;;;;;3.88;100.00;96959.19;1223289;75;2917202;-67
2023/12/25 01:54:29;;;;;;;13.45;8.65;;;;;;;3.55;100.00;96939.97;1222595;75;2919493;-66
2023/12/25 01:57:03;;;;;;;10.20;7.15;;;;;;;3.76;100.00;96955.38;1224156;75;2885643;-67
2023/12/25 01:59:39;;;;;;;10.20;6.95;;;;;;;3.89;100.00;96940.97;1221972;75;2917923;-67
2023/12/25 02:02:12;;;;;;;8.45;5.80;;;;;;;4.08;100.00;96952.59;1224406;75;2913409;-68
2023/12/25 02:04:45;;;;;;;11.75;6.30;;;;;;;4.05;100.00;96951.53;1221835;75;2923957;-69
2023/12/25 02:07:20;;;;;;;9.85;7.10;;;;;;;3.83;100.00;96965.94;1223540;75;2926923;-66
2023/12/25 02:09:53;;;;;;;10.95;7.85;;;;;;;4.00;100.00;96960.25;1220799;75;2921633;-71
2023/12/25 02:12:26;;;;;;;10.15;7.35;;;;;;;4.00;100.00;96961.00;1224156;75;2925126;-68
2023/12/25 02:15:01;;;;;;;8.30;5.55;;;;;;;4.09;100.00;96951.38;1222730;75;2921120;-65
2023/12/25 02:17:35;;;;;;;8.10;5.25;;;;;;;4.21;100.00;96974.88;1222900;75;2920049;-68
2023/12/25 02:20:10;;;;;;;6.85;5.00;;;;;;;4.22;100.00;96970.97;1221518;75;2923570;-68
2023/12/25 02:22:44;;;;;;;6.90;4.80;;;;;;;4.28;100.00;96963.75;1224316;75;2928384;-67
2023/12/25 02:25:27;;;;;;;5.20;3.80;;;;;;;4.27;100.00;96964.97;1221061;75;2919375;-69
2023/12/25 02:28:03;;;;;;;11.25;6.90;;;;;;;4.13;100.00;96960.88;1223739;75;2926225;-69
2023/12/25 02:30:36;;;;;;;8.10;5.05;;;;;;;4.29;100.00;96969.94;1221593;75;2928478;-68
2023/12/25 02:33:09;;;;;;;6.55;4.80;;;;;;;4.35;100.00;96966.16;1223550;75;2954748;-70
2023/12/25 02:35:42;;;;;;;6.10;4.75;;;;;;;4.44;100.00;96979.72;1222023;75;2916351;-72
2023/12/25 02:38:15;;;;;;;6.90;4.85;;;;;;;4.51;100.00;96975.97;1223908;75;2916038;-67
2023/12/25 02:40:48;;;;;;;5.75;4.00;;;;;;;4.63;100.00;96983.19;1221678;75;2919211;-68
2023/12/25 02:43:24;;;;;;;5.30;3.90;;;;;;;4.62;100.00;96979.00;1224050;75;2915025;-69
2023/12/25 02:45:56;;;;;;;5.70;3.75;;;;;;;4.76;100.00;96968.72;1221983;75;2933264;-72
2023/12/25 02:48:29;;;;;;;4.70;3.10;;;;;;;4.74;100.00;96965.72;1222962;75;2921617;-69
2023/12/25 02:51:02;;;;;;;5.75;3.20;;;;;;;4.89;100.00;96967.38;1221156;75;2927229;-70
2023/12/25 02:53:35;;;;;;;4.75;2.90;;;;;;;5.00;100.00;96958.75;1224315;75;2921999;-71
2023/12/25 02:56:09;;;;;;;4.55;2.90;;;;;;;4.94;100.00;96962.56;1221475;75;2923903;-71
2023/12/25 02:58:44;;;;;;;4.10;2.85;;;;;;;5.10;100.00;96959.50;1223702;75;2924808;-68
2023/12/25 03:01:17;;;;;;;3.65;2.50;;;;;;;4.97;100.00;96969.78;1221849;75;2895546;-68
2023/12/25 03:03:50;;;;;;;4.60;3.00;;;;;;;5.01;100.00;96959.53;1222716;75;2945165;-67
2023/12/25 03:06:23;;;;;;;4.65;2.45;;;;;;;5.15;100.00;96956.19;1221569;75;2937823;-68
2023/12/25 03:08:56;;;;;;;5.35;3.45;;;;;;;5.19;100.00;96967.59;1224110;75;2920428;-69
2023/12/25 03:11:29;;;;;;;8.95;5.20;;;;;;;5.03;100.00;96971.44;1223615;75;2918250;-67
2023/12/25 03:14:04;;;;;;;8.20;5.15;;;;;;;5.05;100.00;96979.88;1225850;75;2913778;-66
2023/12/25 03:16:37;;;;;;;11.15;7.15;;;;;;;4.81;100.00;96979.75;1223361;75;2917287;-67
2023/12/25 03:19:10;;;;;;;8.55;5.95;;;;;;;5.05;100.00;96974.44;1223523;75;2925830;-67
2023/12/25 03:21:43;;;;;;;9.00;5.20;;;;;;;5.09;100.00;96987.84;1223730;75;2920110;-66
2023/12/25 03:24:16;;;;;;;6.45;4.70;;;;;;;5.17;100.00;96986.31;1224128;75;2918279;-66
2023/12/25 03:26:49;;;;;;;6.75;4.30;;;;;;;5.10;100.00;96994.78;1223588;75;2921606;-68
2023/12/25 03:29:25;;;;;;;6.40;4.50;;;;;;;5.21;100.00;96984.19;1223467;75;2929486;-68
2023/12/25 03:31:58;;;;;;;7.05;4.45;;;;;;;5.16;100.00;96981.34;1223634;75;2927378;-68
2023/12/25 03:34:30;;;;;;;7.15;4.65;;;;;;;5.08;100.00;96975.50;1222566;75;2924186;-68
2023/12/25 03:37:03;;;;;;;8.10;4.90;;;;;;;4.82;100.00;96989.38;1224851;75;2919924;-69
2023/12/25 03:39:36;;;;;;;10.65;6.70;;;;;;;4.50;100.00;96990.75;1221858;75;2927986;-64
2023/12/25 03:42:09;;;;;;;11.90;7.45;;;;;;;4.33;100.00;96982.16;1224769;75;2924460;-67
2023/12/25 03:44:45;;;;;;;9.85;6.30;;;;;;;4.77;100.00;96992.69;1223006;75;2919760;-69
2023/12/25 03:47:18;;;;;;;7.60;5.50;;;;;;;4.90;100.00;96984.38;1225599;75;2913624;-69
2023/12/25 03:49:51;;;;;;;7.75;5.15;;;;;;;4.94;100.00;96982.28;1222679;75;2917527;-69
2023/12/25 03:52:24;;;;;;;6.70;5.05;;;;;;;4.55;100.00;96987.44;1224971;75;2904910;-68
2023/12/25 03:54:57;;;;;;;9.05;5.80;;;;;;;4.60;100.00;96978.69;1222416;75;2916589;-69
2023/12/25 03:57:30;;;;;;;6.20;4.80;;;;;;;4.75;100.00;96986.97;1224422;75;2917956;-67
2023/12/25 04:00:06;;;;;;;6.55;4.15;;;;;;;4.76;100.00;97002.00;1221309;75;2911581;-69
2023/12/25 04:02:39;;;;;;;6.30;4.00;;;;;;;4.80;100.00;97001.88;1224873;75;2918587;-69
2023/12/25 04:05:12;;;;;;;5.30;3.65;;;;;;;4.99;100.00;96997.94;1222403;75;2926881;-69
2023/12/25 04:07:45;;;;;;;6.30;3.80;;;;;;;4.85;100.00;96999.31;1224520;75;2922175;-69
2023/12/25 04:10:18;;;;;;;5.90;4.30;;;;;;;4.64;100.00;96992.84;1217657;75;3245850;-69
2023/12/25 04:12:51;;;;;;;6.05;4.20;;;;;;;4.86;100.00;97008.22;1225416;75;2923766;-65
2023/12/25 04:15:27;;;;;;;6.75;4.70;;;;;;;4.64;100.00;97009.13;1221705;75;2924041;-65
2023/12/25 04:18:00;;;;;;;5.85;4.05;;;;;;;4.87;100.00;97010.47;1223918;75;2916264;-69
2023/12/25 04:20:33;;;;;;;5.70;3.90;;;;;;;4.60;100.00;97007.75;1222007;75;2916641;-68
2023/12/25 04:23:09;;;;;;;7.25;4.70;;;;;;;4.65;100.00;96994.34;1224548;75;2877143;-67
2023/12/25 04:25:42;;;;;;;6.20;4.70;;;;;;;4.55;100.00;97000.22;1223189;75;2912789;-69
2023/12/25 04:28:14;;;;;;;4.65;3.35;;;;;;;4.80;100.00;97004.59;1223717;75;2926477;-69
2023/12/25 04:30:50;;;;;;;7.05;4.15;;;;;;;4.55;100.00;97008.38;1222341;75;2920593;-68
2023/12/25 04:33:23;;;;;;;7.60;5.00;;;;;;;4.39;100.00;97007.44;1224866;75;2918537;-68
2023/12/25 04:35:56;;;;;;;6.50;4.40;;;;;;;4.65;100.00;97015.28;1221836;75;2929491;-67
2023/12/25 04:38:28;;;;;;;6.35;4.25;;;;;;;4.41;100.00;97015.88;1221503;75;2914533;-65
2023/12/25 04:41:01;;;;;;;7.10;5.05;;;;;;;4.55;100.00;97016.50;1224645;75;2918746;-68
2023/12/25 04:43:34;;;;;;;6.20;4.05;;;;;;;4.67;100.00;97013.63;1222243;75;2915678;-69
2023/12/25 04:46:10;;;;;;;7.10;4.60;;;;;;;4.49;100.00;97021.75;1225005;75;2924811;-68
2023/12/25 04:48:42;;;;;;;7.00;4.35;;;;;;;4.21;100.00;97010.09;1222729;75;2919085;-69
2023/12/25 04:51:15;;;;;;;6.50;4.55;;;;;;;4.30;100.00;97009.38;1224502;75;2914739;-66
2023/12/25 04:53:48;;;;;;;6.90;4.20;;;;;;;4.20;100.00;97020.19;1221297;75;2920296;-65
2023/12/25 04:56:21;;;;;;;6.80;4.40;;;;;;;4.03;100.00;97025.09;1225111;75;2917343;-67
2023/12/25 04:58:54;;;;;;;7.55;5.00;;;;;;;3.95;100.00;97023.13;1221285;75;2919697;-71
2023/12/25 05:01:30;;;;;;;7.35;4.80;;;;;;;4.25;100.00;97035.09;1209269;75;4087196;-68
2023/12/25 05:04:02;;;;;;;5.40;3.65;;;;;;;4.32;100.00;97028.66;1222705;75;2920523;-70
2023/12/25 05:06:35;;;;;;;5.65;3.65;;;;;;;4.39;100.00;97039.19;1224254;75;2915102;-67
2023/12/25 05:09:08;;;;;;;8.15;4.70;;;;;;;3.98;100.00;97049.31;1222148;75;2927856;-68
2023/12/25 05:11:41;;;;;;;5.70;4.50;;;;;;;4.00;100.00;97046.94;1223727;75;2922799;-67
2023/12/25 05:14:14;;;;;;;5.85;4.00;;;;;;;4.13;100.00;97038.69;1221747;75;2915740;-69
2023/12/25 05:16:49;;;;;;;7.30;5.05;;;;;;;3.98;100.00;97060.16;1223627;75;2922166;-67
2023/12/25 05:19:22;;;;;;;7.35;4.55;;;;;;;4.22;100.00;97044.88;1221602;75;2933457;-66
2023/12/25 05:21:55;;;;;;;5.90;4.40;;;;;;;4.27;100.00;97048.94;1224439;75;2914121;-68
2023/12/25 05:24:28;;;;;;;5.15;3.50;;;;;;;4.25;100.00;97059.47;1221445;75;2924986;-68
2023/12/25 05:27:00;;;;;;;7.95;5.05;;;;;;;3.93;100.00;97060.75;1224126;75;2919339;-69
2023/12/25 05:29:33;;;;;;;6.00;4.00;;;;;;;4.08;100.00;97069.06;1221506;75;2916179;-69
2023/12/25 05:32:09;;;;;;;6.90;4.25;;;;;;;4.19;100.00;97067.44;1223101;75;2924554;-65
2023/12/25 05:34:42;;;;;;;7.20;4.80;;;;;;;3.96;100.00;97062.56;1223677;75;2921878;-70
2023/12/25 05:37:15;;;;;;;5.15;3.85;;;;;;;4.13;100.00;97068.47;1223037;67;2926094;-69
2023/12/25 05:39:48;;;;;;;6.10;4.20;;;;;;;4.02;100.00;97071.63;1223289;75;2921819;-67
2023/12/25 05:42:21;;;;;;;4.95;3.30;;;;;;;4.13;100.00;97080.06;1222906;75;2937771;-69
2023/12/25 05:44:54;;;;;;;4.00;2.80;;;;;;;4.17;100.00;97083.41;1223738;75;2918560;-68
2023/12/25 05:47:29;;;;;;;5.50;3.60;;;;;;;4.17;100.00;97077.97;1221937;75;2921705;-67
2023/12/25 05:50:02;;;;;;;5.10;3.65;;;;;;;4.18;100.00;97087.59;1223321;75;2935745;-67
2023/12/25 05:52:35;;;;;;;4.00;3.20;;;;;;;4.20;100.00;97092.59;1222314;75;2925329;-66
2023/12/25 05:55:09;;;;;;;5.70;3.95;;;;;;;3.73;100.00;97105.19;1223850;75;2924412;-68
2023/12/25 05:57:41;;;;;;;5.05;3.35;;;;;;;4.02;100.00;97077.78;1222122;75;2923541;-70
2023/12/25 06:00:17;;;;;;;5.55;3.55;;;;;;;3.76;100.00;97093.44;1223323;75;2924268;-69
2023/12/25 06:02:53;;;;;;;6.05;4.40;;;;;;;3.66;100.00;97093.84;1222927;75;2925191;-70
2023/12/25 06:05:25;;;;;;;5.35;4.35;;;;;;;3.90;100.00;97094.88;1224725;75;2912534;-68
2023/12/25 06:07:58;;;;;;;7.45;4.75;;;;;;;3.65;100.00;97098.50;1222249;75;2917571;-68
2023/12/25 06:10:31;;;;;;;7.15;5.10;;;;;;;3.66;100.00;97096.56;1224917;75;2914907;-71
2023/12/25 06:13:04;;;;;;;6.20;4.70;;;;;;;3.65;100.00;97084.22;1221235;75;2914960;-68
2023/12/25 06:15:37;;;;;;;6.30;4.10;;;;;;;3.86;100.00;97098.91;1223723;75;2925351;-70
2023/12/25 06:18:13;;;;;;;6.90;4.40;;;;;;;3.75;100.00;97102.00;1222078;75;2923663;-67
2023/12/25 06:20:46;;;;;;;6.65;4.45;;;;;;;3.47;100.00;97093.00;1224006;75;2914713;-68
2023/12/25 06:23:19;;;;;;;5.85;4.05;;;;;;;3.70;100.00;97105.28;1220674;75;2920407;-69
2023/12/25 06:25:52;;;;;;;10.65;7.90;;;;;;;3.89;100.00;97098.03;1224388;75;2922062;-68
2023/12/25 06:28:25;;;;;;;22.25;15.30;;;;;;;3.78;100.00;97110.00;1219178;75;2931103;-69
2023/12/25 06:30:57;;;;;;;16.55;12.30;;;;;;;3.87;100.00;97119.38;1223727;75;2929794;-68
2023/12/25 06:33:33;;;;;;;31.65;19.25;;;;;;;3.74;100.00;97111.34;1222682;75;2922427;-68
2023/12/25 06:36:06;;;;;;;24.50;14.10;;;;;;;4.00;100.00;97107.25;1223489;75;2916571;-69
2023/12/25 06:38:39;;;;;;;9.45;6.05;;;;;;;3.51;100.00;97126.84;1221918;75;2922071;-68
2023/12/25 06:41:14;;;;;;;8.60;5.55;;;;;;;3.74;100.00;97125.63;1224965;75;2921795;-70
2023/12/25 06:43:47;;;;;;;8.60;5.80;;;;;;;3.72;100.00;97125.31;1221305;75;2920457;-67
2023/12/25 06:46:20;;;;;;;7.85;5.40;;;;;;;3.72;100.00;97138.84;1224549;75;2916921;-66
2023/12/25 06:48:55;;;;;;;7.10;5.00;;;;;;;3.70;100.00;97133.09;1221175;75;2915065;-70
2023/12/25 06:51:29;;;;;;;6.25;4.45;;;;;;;3.56;100.00;97141.75;1224054;75;2922856;-68
2023/12/25 06:54:02;;;;;;;6.00;3.90;;;;;;;3.72;100.00;97146.97;1222676;75;2940729;-70
2023/12/25 06:56:35;;;;;;;5.95;4.35;;;;;;;3.60;100.00;97145.81;1223651;75;2925299;-67
2023/12/25 06:59:08;;;;;;;4.25;3.40;;;;;;;3.76;100.00;97150.31;1221448;75;2917277;-68
2023/12/25 07:01:41;;;;;;;6.70;4.35;;;;;;;3.71;100.00;97137.34;1223498;75;2936865;-70
2023/12/25 07:04:16;;;;;;;6.20;4.30;;;;;;;3.68;100.00;97135.53;1221817;75;2918259;-68
2023/12/25 07:06:50;;;;;;;7.75;4.65;;;;;;;3.64;100.00;97145.72;1224775;75;2916476;-69
2023/12/25 07:09:23;;;;;;;7.65;4.35;;;;;;;3.65;100.00;97138.34;1221174;75;2919234;-68
2023/12/25 07:11:55;;;;;;;7.80;4.95;;;;;;;3.74;100.00;97147.28;1223752;75;2919555;-69
2023/12/25 07:14:28;;;;;;;9.05;6.05;;;;;;;3.89;100.00;97146.75;1222547;75;2899971;-68
2023/12/25 07:17:02;;;;;;;9.10;5.95;;;;;;;3.88;100.00;97159.56;1226387;75;2900811;-66
2023/12/25 07:19:37;;;;;;;10.15;5.30;;;;;;;3.69;100.00;97147.09;1222591;75;2922816;-69
2023/12/25 07:22:11;;;;;;;7.75;5.15;;;;;;;3.86;100.00;97148.41;1225779;75;2942587;-68
2023/12/25 07:24:44;;;;;;;11.05;6.90;;;;;;;3.62;100.00;97151.56;1221876;75;2921587;-68
2023/12/25 07:27:16;;;;;;;11.35;7.95;;;;;;;3.85;100.00;97155.03;1223938;75;2917470;-68
2023/12/25 07:29:49;;;;;;;9.05;6.95;;;;;;;3.79;100.00;97171.06;1221410;75;2919759;-69
2023/12/25 07:32:22;;;;;;;12.65;9.40;;;;;;;3.96;100.00;97166.19;1224649;75;2938090;-67
2023/12/25 07:34:58;;;;;;;10.50;7.35;;;;;;;3.71;100.00;97166.38;1223059;75;2913758;-70
2023/12/25 07:37:30;;;;;;;9.65;6.45;;;;;;;4.07;100.00;97173.94;1225184;75;2918407;-68
2023/12/25 07:40:03;;;;;;;6.70;5.20;;;;;;;4.01;100.00;97173.75;1222243;75;2919614;-69
2023/12/25 07:42:36;;;;;;;6.70;4.85;;;;;;;4.16;100.00;97175.94;1224931;75;2916364;-67
2023/12/25 07:45:11;;;;;;;5.15;4.10;;;;;;;4.04;100.00;97174.81;1221770;75;2926094;-66
2023/12/25 07:47:44;;;;;;;6.25;4.90;;;;;;;4.20;100.00;97181.97;1223890;75;2929491;-69
2023/12/25 07:50:19;;;;;;;8.60;5.60;;;;;;;3.89;100.00;97179.25;1221479;75;2918606;-69
2023/12/25 07:52:52;;;;;;;6.40;4.85;;;;;;;4.09;100.00;97168.84;1225481;75;2929671;-68
2023/12/25 07:55:25;;;;;;;7.75;5.35;;;;;;;4.18;100.00;97178.97;1223026;75;2916630;-71
2023/12/25 07:57:58;;;;;;;12.80;8.75;;;;;;;3.96;100.00;97184.41;1224257;75;2933432;-67
2023/12/25 08:00:31;;;;;;;11.60;7.70;;;;;;;4.20;100.00;97171.16;1222520;75;2928901;-71
2023/12/25 08:03:03;;;;;;;8.30;6.10;;;;;;;4.36;100.00;97165.50;1225241;75;2918347;-69
2023/12/25 08:05:39;;;;;;;7.30;4.90;;;;;;;4.44;100.00;97174.84;1222277;75;2929825;-69
2023/12/25 08:08:12;;;;;;;10.20;7.20;;;;;;;4.38;100.00;97184.03;1224061;75;2914560;-71
2023/12/25 08:10:45;;;;;;;12.20;9.10;;;;;;;4.38;100.00;97184.03;1223205;75;2923150;-69
2023/12/25 08:13:20;;;;;;;11.95;8.50;;;;;;;4.20;100.00;97181.97;1224716;75;2924691;-69
2023/12/25 08:15:53;;;;;;;10.75;6.95;;;;;;;4.39;100.00;97185.53;1222621;75;2916150;-68
2023/12/25 08:18:26;;;;;;;7.95;5.85;;;;;;;4.61;100.00;97191.63;1222910;75;2923720;-70
2023/12/25 08:21:02;;;;;;;7.85;5.50;;;;;;;4.58;100.00;97194.50;1221690;75;2919417;-68
2023/12/25 08:23:35;;;;;;;7.65;5.35;;;;;;;4.73;100.00;97203.56;1224330;75;2920089;-68
2023/12/25 08:26:08;;;;;;;7.10;5.55;;;;;;;4.70;100.00;97194.38;1220114;67;2949221;-68
2023/12/25 08:28:42;;;;;;;8.40;6.30;;;;;;;4.76;100.00;97191.06;1223640;75;2912980;-68
2023/12/25 08:31:14;;;;;;;9.85;6.60;;;;;;;4.57;100.00;97214.66;1221675;75;2920926;-69
2023/12/25 08:33:47;;;;;;;8.20;5.60;;;;;;;4.88;100.00;97199.13;1223877;75;2930514;-69
2023/12/25 08:36:23;;;;;;;7.05;4.95;;;;;;;4.75;100.00;97208.56;1221133;75;2922763;-69
2023/12/25 08:38:55;;;;;;;8.80;6.45;;;;;;;4.56;100.00;97202.31;1223060;75;2926355;-70
2023/12/25 08:41:28;;;;;;;10.70;6.65;;;;;;;4.41;100.00;97227.25;1222071;75;2924007;-69
2023/12/25 08:44:01;;;;;;;9.60;6.95;;;;;;;4.56;100.00;97222.03;1224856;75;2918838;-68
2023/12/25 08:46:34;;;;;;;7.55;5.90;;;;;;;4.93;100.00;97238.47;1222204;75;2918708;-70
2023/12/25 08:49:08;;;;;;;6.70;4.95;;;;;;;4.90;100.00;97221.09;1223352;75;2920919;-68
2023/12/25 08:51:44;;;;;;;8.60;5.80;;;;;;;4.62;100.00;97238.50;1222240;75;2958364;-69
2023/12/25 08:54:17;;;;;;;8.25;6.20;;;;;;;4.93;100.00;97232.25;1222501;75;2922557;-69
2023/12/25 08:56:51;;;;;;;6.65;5.25;;;;;;;5.08;100.00;97231.25;1222929;75;2922429;-68
2023/12/25 08:59:23;;;;;;;6.15;4.55;;;;;;;5.17;100.00;97221.59;1222161;75;2931185;-69
2023/12/25 09:01:56;;;;;;;8.60;6.50;;;;;;;4.90;100.00;97237.38;1223586;75;2922779;-68
2023/12/25 09:04:29;;;;;;;8.10;6.00;;;;;;;5.05;100.00;97245.72;1220703;75;2901431;-68
2023/12/25 09:07:04;;;;;;;16.35;10.95;;;;;;;5.15;100.00;97241.06;1223357;75;2927606;-67
2023/12/25 09:09:37;;;;;;;13.30;7.75;;;;;;;4.96;100.00;97239.50;1222172;75;2925073;-68
2023/12/25 09:12:10;;;;;;;10.30;7.25;;;;;;;5.30;100.00;97250.13;1223228;75;2950386;-69
2023/12/25 09:14:43;;;;;;;10.30;7.55;;;;;;;5.36;100.00;97235.97;1221920;75;2918292;-68
2023/12/25 09:17:16;;;;;;;8.05;5.75;;;;;;;5.46;100.00;97234.75;1220694;75;2966501;-70
2023/12/25 09:19:50;;;;;;;9.30;6.80;;;;;;;5.50;100.00;97229.94;1221072;75;2920384;-69
2023/12/25 09:22:27;;;;;;;10.35;7.40;;;;;;;5.38;100.00;97231.59;1224084;75;2917066;-70
2023/12/25 09:25:00;;;;;;;10.45;7.30;;;;;;;5.46;100.00;97240.97;1221385;75;2923295;-69
2023/12/25 09:27:33;;;;;;;8.20;6.05;;;;;;;5.69;100.00;97247.75;1223926;75;2919382;-72
2023/12/25 09:30:08;;;;;;;11.55;7.60;;;;;;;5.54;100.00;97236.72;1220910;75;2935620;-67
2023/12/25 09:32:42;;;;;;;10.40;7.70;;;;;;;5.83;100.00;97254.53;1223275;75;2918555;-68
2023/12/25 09:35:15;;;;;;;11.90;8.40;;;;;;;5.94;100.00;97254.09;1221385;75;2944461;-69
2023/12/25 09:37:51;;;;;;;12.65;7.85;;;;;;;6.14;100.00;97238.09;1222502;75;2925409;-67
2023/12/25 09:40:24;;;;;;;18.00;13.00;;;;;;;5.98;100.00;97239.16;1221566;75;2927246;-66
2023/12/25 09:42:58;;;;;;;12.45;9.90;;;;;;;6.29;100.00;97232.75;1223843;75;2921812;-69
2023/12/25 09:45:35;;;;;;;11.55;8.55;;;;;;;6.47;100.00;97245.56;1221292;75;2922870;-66
2023/12/25 09:48:10;;;;;;;15.10;10.30;;;;;;;6.48;100.00;97235.44;1223673;75;2915577;-66
2023/12/25 09:50:45;;;;;;;11.85;8.35;;;;;;;6.46;100.00;97240.59;1221455;75;2919226;-68
2023/12/25 09:53:20;;;;;;;17.05;10.10;;;;;;;6.14;100.00;97240.06;1223651;75;2919859;-68
2023/12/25 09:55:57;;;;;;;13.65;9.10;;;;;;;6.49;100.00;97236.94;1222091;75;2919021;-67
2023/12/25 09:58:31;;;;;;;11.75;7.65;;;;;;;6.68;100.00;97234.91;1223146;75;2920619;-68
2023/12/25 10:01:04;;;;;;;11.50;8.35;;;;;;;6.63;100.00;97254.56;1221565;75;2924270;-69
2023/12/25 10:03:39;;;;;;;13.80;9.35;;;;;;;6.79;100.00;97240.63;1223475;75;2920037;-67
2023/12/25 10:06:12;;;;;;;14.70;10.30;;;;;;;6.90;100.00;97238.13;1220952;75;2925127;-65
2023/12/25 10:08:48;;;;;;;17.80;12.00;;;;;;;6.88;100.00;97231.66;1223654;75;2919824;-68
2023/12/25 10:11:20;;;;;;;17.95;12.85;;;;;;;6.85;100.00;97236.03;1218983;75;2993735;-69
2023/12/25 10:13:53;;;;;;;19.15;15.65;;;;;;;6.97;100.00;97229.63;1224037;75;2923012;-66
2023/12/25 10:16:27;;;;;;;18.05;15.05;;;;;;;7.24;100.00;97228.72;1221749;75;2934751;-67
2023/12/25 10:19:00;;;;;;;20.90;15.25;;;;;;;7.35;100.00;97219.28;1223527;75;2928297;-68
2023/12/25 10:21:45;;;;;;;18.15;13.45;;;;;;;7.39;100.00;97228.78;1221198;75;2947083;-65
2023/12/25 10:24:21;;;;;;;12.90;10.90;;;;;;;7.69;100.00;97226.88;1223561;75;2923438;-66
2023/12/25 10:26:57;;;;;;;15.30;12.80;;;;;;;7.45;100.00;97221.47;1223354;75;2919773;-67
2023/12/25 10:29:38;;;;;;;20.50;17.20;;;;;;;7.60;100.00;97216.09;1221458;75;2926362;-67
2023/12/25 10:32:23;;;;;;;21.20;15.80;;;;;;;7.67;100.00;97223.91;1221039;75;2917404;-68
2023/12/25 10:35:11;;;;;;;17.55;13.95;;;;;;;7.60;100.00;97220.75;1222355;75;2921675;-67
2023/12/25 10:37:46;;;;;;;18.10;12.80;;;;;;;7.52;100.00;97222.34;1224604;75;2926219;-66
2023/12/25 10:40:31;;;;;;;17.65;11.20;;;;;;;7.67;100.00;97213.00;1220902;75;2922536;-66
2023/12/25 10:43:04;;;;;;;14.40;9.20;;;;;;;7.78;100.00;97208.97;1223411;75;2920514;-69
2023/12/25 10:45:38;;;;;;;10.85;8.00;;;;;;;8.03;100.00;97221.28;1221887;75;2921648;-67
2023/12/25 10:48:14;;;;;;;9.80;6.85;;;;;;;8.13;100.00;97222.75;1220423;75;2988308;-66
2023/12/25 10:50:49;;;;;;;9.40;6.55;;;;;;;8.20;100.00;97221.59;1220882;75;2921271;-68
2023/12/25 10:53:23;;;;;;;8.15;6.05;;;;;;;8.36;100.00;97220.38;1223026;75;2918225;-65
2023/12/25 10:55:59;;;;;;;11.00;7.80;;;;;;;8.07;100.00;97216.41;1221107;75;2921038;-69
2023/12/25 10:58:32;;;;;;;16.35;11.20;;;;;;;7.89;100.00;97217.34;1220953;75;2919487;-66
2023/12/25 11:01:05;;;;;;;15.85;11.50;;;;;;;7.91;100.00;97209.44;1220896;75;2940481;-67
2023/12/25 11:03:39;;;;;;;12.85;9.50;;;;;;;7.97;100.00;97204.84;1223598;75;2921189;-67
2023/12/25 11:06:12;;;;;;;10.15;7.50;;;;;;;8.24;100.00;97212.00;1221677;75;2921549;-69
2023/12/25 11:08:46;;;;;;;13.10;7.35;;;;;;;8.06;100.00;97212.19;1222805;75;2922393;-69
2023/12/25 11:11:23;;;;;;;9.65;6.95;;;;;;;8.27;100.00;97208.34;1221507;75;2923515;-69
2023/12/25 11:13:56;;;;;;;8.10;5.40;;;;;;;8.50;100.00;97206.75;1225378;75;2929815;-66
2023/12/25 11:16:28;;;;;;;7.40;5.40;;;;;;;8.46;100.00;97205.44;1222453;75;2926581;-67
2023/12/25 11:19:02;;;;;;;8.25;5.85;;;;;;;8.19;100.00;97209.19;1224977;75;2919524;-68
2023/12/25 11:21:37;;;;;;;8.35;5.65;;;;;;;8.40;100.00;97218.25;1222442;75;2933347;-66
2023/12/25 11:24:11;;;;;;;7.40;5.05;;;;;;;8.55;100.00;97216.25;1223695;75;2925827;-66
2023/12/25 11:26:48;;;;;;;6.05;4.35;;;;;;;8.58;100.00;97215.28;1221440;75;2941668;-70
2023/12/25 11:29:21;;;;;;;9.40;6.05;;;;;;;8.27;100.00;97211.06;1223922;75;2923395;-68
2023/12/25 11:31:56;;;;;;;10.15;7.00;;;;;;;8.38;100.00;97204.28;1221683;75;2919736;-69
2023/12/25 11:34:32;;;;;;;10.05;7.65;;;;;;;8.29;100.00;97199.69;1224033;75;2931797;-67
2023/12/25 11:37:05;;;;;;;7.75;5.85;;;;;;;8.60;100.00;97195.72;1222267;75;2919662;-71
2023/12/25 11:39:38;;;;;;;7.25;5.05;;;;;;;8.70;100.00;97199.84;1222898;75;2944434;-69
2023/12/25 11:42:14;;;;;;;8.15;5.85;;;;;;;8.41;100.00;97185.03;1221505;75;2923025;-67
2023/12/25 11:44:50;;;;;;;9.00;6.65;;;;;;;8.45;100.00;97193.03;1223138;75;2951257;-68